Time;durP1;ratioP1;P1;durP2;ratioP2;P2;SDS_P1;SDS_P2;PMS_P1;PMS_P2;Temp;Humidity;BMP_temperature;BMP_pressure;BME280_temperature;BME280_humidity;BME280_pressure;Samples;Min_cycle;Max_cycle;Signal;HPM_P1;HPM_P2
2022/08/04 00:02:24;;;;;;;4.72;4.00;;;;;;;24.97;100.00;101101.84;5093786;28;20024;-72
2022/08/04 00:05:34;;;;;;;4.47;3.65;;;;;;;25.04;100.00;101110.31;5093708;28;20081;-73
2022/08/04 00:08:48;;;;;;;8.60;3.92;;;;;;;25.19;100.00;101107.38;5094099;28;20052;-72
2022/08/04 00:11:34;;;;;;;9.35;4.05;;;;;;;25.03;100.00;101108.59;5093966;28;20105;-72
2022/08/04 00:14:20;;;;;;;11.68;4.72;;;;;;;24.63;100.00;101112.34;5094041;28;20024;-72
2022/08/04 00:17:07;;;;;;;9.82;4.50;;;;;;;24.56;100.00;101106.53;5094019;28;20028;-72
2022/08/04 00:20:02;;;;;;;11.73;5.07;;;;;;;24.99;100.00;101110.63;5092694;28;20047;-72
2022/08/04 00:22:51;;;;;;;9.65;4.93;;;;;;;24.94;100.00;101110.09;5093766;28;20471;-72
2022/08/04 00:25:40;;;;;;;11.98;4.65;;;;;;;24.69;100.00;101114.59;5093383;28;20030;-72
2022/08/04 00:28:27;;;;;;;15.05;5.55;;;;;;;24.53;100.00;101114.78;5093490;28;20111;-72
2022/08/04 00:31:15;;;;;;;15.60;6.05;;;;;;;24.61;99.40;101123.19;5093899;28;20047;-72
2022/08/04 00:34:02;;;;;;;16.33;5.60;;;;;;;24.51;98.04;101114.00;5097088;28;20052;-72
2022/08/04 00:36:48;;;;;;;17.33;5.13;;;;;;;24.55;96.19;101115.50;5097379;28;20107;-72
2022/08/04 00:39:35;;;;;;;13.40;5.32;;;;;;;24.80;94.18;101122.75;5096817;28;20111;-72
2022/08/04 00:42:24;;;;;;;12.98;4.82;;;;;;;24.35;96.58;101123.22;5096889;28;20024;-71
2022/08/04 00:45:21;;;;;;;13.85;4.90;;;;;;;24.37;96.46;101124.81;5096088;28;20047;-72
2022/08/04 00:48:26;;;;;;;9.85;4.50;;;;;;;24.29;96.56;101124.47;5097007;28;20024;-72
2022/08/04 00:51:36;;;;;;;9.02;4.32;;;;;;;24.31;96.31;101125.22;5096743;28;20364;-72
2022/08/04 00:54:46;;;;;;;6.40;3.83;;;;;;;24.42;95.08;101125.34;5096515;28;20047;-72
2022/08/04 00:57:57;;;;;;;9.07;3.80;;;;;;;24.35;94.94;101118.69;5096420;28;20136;-71
2022/08/04 01:00:57;;;;;;;5.53;3.50;;;;;;;24.44;93.25;101125.25;5096396;28;20107;-72
2022/08/04 01:03:53;;;;;;;4.55;3.50;;;;;;;24.38;92.85;101121.16;5095590;28;20024;-73
2022/08/04 01:07:19;;;;;;;4.72;3.67;;;;;;;24.16;94.10;101112.88;5096460;28;20020;-72
2022/08/04 01:10:23;;;;;;;7.55;3.60;;;;;;;24.32;93.89;101121.59;5081104;28;20024;-71
2022/08/04 01:13:15;;;;;;;5.20;3.60;;;;;;;24.08;95.86;101123.25;5096554;28;20028;-71
2022/08/04 01:16:06;;;;;;;7.25;3.70;;;;;;;24.53;92.95;101133.53;5096190;28;20039;-72
2022/08/04 01:18:59;;;;;;;5.60;3.30;;;;;;;24.37;94.43;101126.63;5096049;28;20027;-72
2022/08/04 01:22:00;;;;;;;5.40;3.75;;;;;;;24.26;95.74;101126.50;5096013;28;20020;-72
2022/08/04 01:25:23;;;;;;;6.32;3.90;;;;;;;24.17;97.04;101127.09;5096140;28;20080;-72
2022/08/04 01:28:37;;;;;;;5.13;3.50;;;;;;;24.13;98.15;101128.28;5096508;28;20406;-72
2022/08/04 01:31:41;;;;;;;8.30;3.40;;;;;;;24.35;97.33;101128.56;5087412;28;20032;-73
2022/08/04 01:34:35;;;;;;;4.88;3.35;;;;;;;24.45;97.43;101129.63;5096488;28;20028;-72
2022/08/04 01:37:33;;;;;;;4.57;3.40;;;;;;;24.60;96.98;101123.25;5095195;28;20324;-72
2022/08/04 01:40:20;;;;;;;4.28;3.03;;;;;;;24.37;98.48;101123.94;5097578;28;20031;-72
2022/08/04 01:43:08;;;;;;;3.75;3.15;;;;;;;24.35;99.76;101126.72;5095363;28;20024;-71
2022/08/04 01:46:00;;;;;;;5.93;3.40;;;;;;;24.70;98.09;101129.69;5095910;28;20024;-72
2022/08/04 01:48:52;;;;;;;5.00;3.78;;;;;;;24.69;98.24;101126.19;5095905;28;20365;-71
2022/08/04 01:51:38;;;;;;;4.10;3.70;;;;;;;24.53;100.00;101121.94;5095029;28;20020;-72
2022/08/04 01:54:25;;;;;;;7.18;3.83;;;;;;;24.58;100.00;101117.97;5095081;28;20044;-73
2022/08/04 01:57:11;;;;;;;6.28;3.78;;;;;;;24.62;100.00;101121.34;5095337;28;20028;-72
2022/08/04 01:59:58;;;;;;;8.65;4.00;;;;;;;24.57;100.00;101123.44;5095971;28;20073;-72
2022/08/04 02:02:45;;;;;;;5.43;3.92;;;;;;;24.76;100.00;101122.13;5096040;28;20070;-72
2022/08/04 02:05:31;;;;;;;6.88;4.10;;;;;;;24.49;100.00;101109.72;5094727;28;20115;-72
2022/08/04 02:08:20;;;;;;;6.68;4.15;;;;;;;24.28;100.00;101120.09;5095303;28;20027;-72
2022/08/04 02:11:16;;;;;;;5.32;3.75;;;;;;;24.33;100.00;101114.41;5095803;28;20067;-72
2022/08/04 02:14:39;;;;;;;7.05;3.95;;;;;;;24.48;100.00;101111.56;5095077;28;20088;-72
2022/08/04 02:18:03;;;;;;;5.28;3.95;;;;;;;24.47;100.00;101108.97;5096060;28;20042;-73
2022/08/04 02:20:56;;;;;;;5.75;4.00;;;;;;;24.48;100.00;101108.00;5053901;28;20028;-72
2022/08/04 02:23:45;;;;;;;5.32;4.00;;;;;;;24.60;100.00;101109.84;5094881;28;20024;-71
2022/08/04 02:26:33;;;;;;;5.20;4.00;;;;;;;24.32;100.00;101104.66;5094287;28;20039;-72
2022/08/04 02:29:28;;;;;;;8.02;4.13;;;;;;;23.97;100.00;101099.00;5094806;28;20035;-72
2022/08/04 02:32:26;;;;;;;5.97;4.30;;;;;;;24.05;100.00;101112.72;5095445;28;20067;-72
2022/08/04 02:35:24;;;;;;;6.25;4.20;;;;;;;24.08;100.00;101109.00;5095074;28;20074;-72
2022/08/04 02:38:34;;;;;;;5.38;4.20;;;;;;;23.89;100.00;101108.44;5094415;28;20035;-72
2022/08/04 02:41:22;;;;;;;5.60;4.32;;;;;;;24.15;100.00;101105.78;5094791;28;20028;-72
2022/08/04 02:44:09;;;;;;;6.38;4.40;;;;;;;24.22;100.00;101103.59;5094793;28;20392;-71
2022/08/04 02:46:55;;;;;;;7.13;4.60;;;;;;;24.09;100.00;101100.84;5094500;28;20020;-72
2022/08/04 02:49:44;;;;;;;7.22;4.70;;;;;;;24.02;100.00;101102.22;5094806;28;20024;-73
2022/08/04 02:52:31;;;;;;;7.25;4.20;;;;;;;23.97;100.00;101101.69;5094294;28;20024;-72
2022/08/04 02:55:18;;;;;;;9.25;4.50;;;;;;;23.76;100.00;101100.38;5093686;28;20055;-72
2022/08/04 02:58:06;;;;;;;7.20;4.25;;;;;;;23.77;100.00;101093.19;5094365;28;20024;-72
2022/08/04 03:00:51;;;;;;;8.75;4.47;;;;;;;23.90;100.00;101096.81;5093890;28;20066;-72
2022/08/04 03:04:08;;;;;;;8.70;4.63;;;;;;;23.84;100.00;101092.72;5094612;28;20028;-72
2022/08/04 03:07:27;;;;;;;6.30;4.50;;;;;;;24.13;100.00;101096.13;5094695;28;20020;-72
2022/08/04 03:10:35;;;;;;;10.27;4.38;;;;;;;24.20;100.00;101108.16;5093618;28;20024;-74
2022/08/04 03:13:39;;;;;;;7.63;4.47;;;;;;;24.07;100.00;101108.13;5094641;28;20039;-75
2022/08/04 03:16:34;;;;;;;5.00;4.50;;;;;;;24.08;100.00;101106.31;5094464;28;20020;-74
2022/08/04 03:19:56;;;;;;;6.20;4.05;;;;;;;24.02;100.00;101109.41;5094172;28;20456;-74
2022/08/04 03:23:19;;;;;;;10.00;4.63;;;;;;;23.89;100.00;101111.13;5094588;28;20059;-74
2022/08/04 03:26:20;;;;;;;8.20;4.50;;;;;;;23.92;100.00;101106.47;5093946;28;20045;-74
2022/08/04 03:29:20;;;;;;;6.90;4.88;;;;;;;24.05;100.00;101109.19;5094093;28;20035;-74
2022/08/04 03:32:27;;;;;;;8.00;4.90;;;;;;;24.20;100.00;101117.06;5094188;28;20452;-74
2022/08/04 03:35:22;;;;;;;4.93;4.43;;;;;;;24.20;100.00;101119.75;5093924;28;20036;-74
2022/08/04 03:38:45;;;;;;;10.18;4.30;;;;;;;24.03;100.00;101124.50;5094079;28;20120;-74
2022/08/04 03:42:12;;;;;;;5.70;4.63;;;;;;;24.18;100.00;101124.34;5094298;28;20364;-74
2022/08/04 03:45:35;;;;;;;7.85;4.85;;;;;;;24.11;100.00;101114.97;5093859;28;20020;-73
2022/08/04 03:48:51;;;;;;;7.38;4.90;;;;;;;24.35;100.00;101120.53;5094483;28;20466;-74
2022/08/04 03:54:51;;;;;;;6.78;4.78;;;;;;;24.24;100.00;101125.75;5093585;28;20048;-74
2022/08/04 03:58:06;;;;;;;9.00;5.28;;;;;;;24.24;100.00;101118.56;5093594;28;20445;-75
2022/08/04 04:01:30;;;;;;;9.18;5.47;;;;;;;24.41;100.00;101123.66;5091380;28;20055;-75
2022/08/04 04:04:25;;;;;;;5.80;5.03;;;;;;;24.34;100.00;101127.69;5093627;28;20024;-74
2022/08/04 04:07:30;;;;;;;7.63;5.15;;;;;;;24.61;100.00;101133.03;5097410;28;20039;-75
2022/08/04 04:11:05;;;;;;;5.78;5.05;;;;;;;24.46;100.00;101137.56;5097883;28;20355;-74
2022/08/04 04:14:15;;;;;;;6.60;5.03;;;;;;;24.37;100.00;101145.38;5086087;28;20032;-74
2022/08/04 04:17:13;;;;;;;8.20;4.88;;;;;;;24.40;100.00;101147.84;5097642;28;20028;-74
2022/08/04 04:20:17;;;;;;;8.48;5.28;;;;;;;24.44;100.00;101147.56;5097409;28;20502;-74
2022/08/04 04:23:09;;;;;;;10.35;5.50;;;;;;;24.49;100.00;101139.19;5097200;28;20111;-74
2022/08/04 04:26:23;;;;;;;10.20;5.45;;;;;;;24.80;100.00;101149.56;5097458;28;20444;-74
2022/08/04 04:29:36;;;;;;;7.22;5.30;;;;;;;24.30;100.00;101147.63;5097835;28;20039;-74
2022/08/04 04:32:34;;;;;;;8.68;5.00;;;;;;;24.46;100.00;101147.41;5097844;28;20028;-75
2022/08/04 04:35:48;;;;;;;12.73;5.07;;;;;;;24.64;100.00;101146.22;5097108;28;20036;-75
2022/08/04 04:38:43;;;;;;;7.30;4.85;;;;;;;24.65;100.00;101146.13;5096315;28;20021;-74
2022/08/04 04:41:42;;;;;;;7.47;4.80;;;;;;;24.64;100.00;101144.41;5096651;28;20069;-75
2022/08/04 04:44:40;;;;;;;13.52;5.38;;;;;;;25.01;100.00;101150.75;5096751;28;20115;-74
2022/08/04 04:47:49;;;;;;;10.05;5.53;;;;;;;24.97;100.00;101146.56;5096678;28;20348;-75
2022/08/04 04:51:08;;;;;;;6.53;4.68;;;;;;;25.26;100.00;101142.66;5095881;28;20415;-74
2022/08/04 04:54:02;;;;;;;7.05;4.97;;;;;;;25.34;100.00;101154.63;5096012;28;20491;-75
2022/08/04 04:57:19;;;;;;;6.80;4.93;;;;;;;25.36;100.00;101158.03;5096567;28;20035;-75
2022/08/04 05:00:09;;;;;;;7.40;4.70;;;;;;;25.38;100.00;101164.16;5095915;28;20024;-76
2022/08/04 05:03:10;;;;;;;7.60;4.80;;;;;;;25.20;100.00;101162.72;5096504;28;20156;-75
2022/08/04 05:06:21;;;;;;;11.95;4.93;;;;;;;25.39;100.00;101165.88;5095945;28;20020;-75
2022/08/04 05:09:07;;;;;;;8.32;4.78;;;;;;;25.54;100.00;101155.84;5096188;28;20103;-75
2022/08/04 05:12:11;;;;;;;9.55;4.70;;;;;;;25.34;100.00;101161.78;5095786;28;20033;-75
2022/08/04 05:15:00;;;;;;;7.32;5.00;;;;;;;25.68;100.00;101161.09;5096212;28;20031;-75
2022/08/04 05:17:51;;;;;;;7.75;4.57;;;;;;;25.70;100.00;101162.69;5095054;28;20039;-75
2022/08/04 05:20:42;;;;;;;8.10;4.72;;;;;;;25.90;100.00;101159.41;5095896;28;20376;-75
2022/08/04 05:23:32;;;;;;;5.18;4.38;;;;;;;25.97;100.00;101154.47;5094775;28;20043;-74
2022/08/04 05:26:22;;;;;;;11.27;4.72;;;;;;;26.27;100.00;101157.53;5096166;28;20118;-75
2022/08/04 05:29:20;;;;;;;7.30;5.07;;;;;;;26.54;100.00;101150.94;5096628;28;20414;-76
2022/08/04 05:32:11;;;;;;;7.97;5.18;;;;;;;26.56;100.00;101157.03;5096014;28;20148;-74
2022/08/04 05:35:04;;;;;;;11.75;5.38;;;;;;;26.78;100.00;101169.72;5096117;28;20475;-75
2022/08/04 05:37:53;;;;;;;9.10;5.03;;;;;;;26.93;99.90;101171.22;5096450;28;20096;-76
2022/08/04 05:40:40;;;;;;;7.28;4.68;;;;;;;26.57;98.72;101172.19;5096543;28;20085;-75
2022/08/04 05:43:26;;;;;;;7.50;4.70;;;;;;;26.50;99.61;101170.09;5095620;28;20070;-75
2022/08/04 05:46:14;;;;;;;7.97;4.55;;;;;;;26.56;100.00;101175.03;5095081;28;20089;-76
2022/08/04 05:49:01;;;;;;;8.45;4.22;;;;;;;26.97;98.48;101172.69;5096247;28;20032;-75
2022/08/04 05:51:48;;;;;;;8.27;4.63;;;;;;;26.98;99.82;101177.09;5094830;28;20024;-75
2022/08/04 05:54:36;;;;;;;11.27;5.55;;;;;;;27.16;100.00;101171.13;5094794;28;20040;-76
2022/08/04 05:57:23;;;;;;;18.02;5.93;;;;;;;26.86;100.00;101180.75;5094562;28;20097;-76
2022/08/04 06:00:10;;;;;;;15.25;5.88;;;;;;;27.05;100.00;101179.19;5094827;28;20038;-75
2022/08/04 06:02:57;;;;;;;12.25;6.05;;;;;;;27.08;100.00;101178.06;5095015;28;20086;-75
2022/08/04 06:05:44;;;;;;;13.93;5.57;;;;;;;26.98;100.00;101185.16;5095128;28;20464;-75
2022/08/04 06:08:30;;;;;;;18.58;5.72;;;;;;;26.98;100.00;101177.97;5095741;28;20032;-76
2022/08/04 06:11:18;;;;;;;12.50;5.43;;;;;;;27.39;100.00;101183.66;5094579;28;20523;-76
2022/08/04 06:14:07;;;;;;;12.55;4.70;;;;;;;27.37;100.00;101179.38;5095004;28;20407;-76
2022/08/04 06:16:54;;;;;;;7.35;4.13;;;;;;;27.58;100.00;101179.47;5094107;28;20048;-75
2022/08/04 06:19:42;;;;;;;7.82;3.90;;;;;;;27.89;93.60;101190.38;5094340;28;20031;-75
2022/08/04 06:22:29;;;;;;;9.68;4.50;;;;;;;27.64;91.84;101182.53;5095239;28;20088;-75
2022/08/04 06:25:19;;;;;;;8.35;4.05;;;;;;;27.74;91.06;101175.44;5094213;28;20054;-75
2022/08/04 06:28:06;;;;;;;9.38;4.80;;;;;;;27.71;90.70;101172.13;5094585;28;20081;-75
2022/08/04 06:30:54;;;;;;;14.75;4.97;;;;;;;27.39;90.81;101172.91;5094889;28;20069;-75
2022/08/04 06:33:40;;;;;;;13.10;4.85;;;;;;;27.69;90.87;101174.97;5094532;28;20391;-75
2022/08/04 06:36:26;;;;;;;11.52;5.53;;;;;;;27.71;89.36;101172.97;5094523;28;20031;-75
2022/08/04 06:39:12;;;;;;;11.20;4.78;;;;;;;27.56;91.89;101176.06;5093885;28;20050;-74
2022/08/04 06:42:00;;;;;;;6.85;3.95;;;;;;;27.59;90.72;101173.97;5094750;28;20433;-75
2022/08/04 06:44:48;;;;;;;7.05;4.22;;;;;;;27.55;91.77;101167.13;5093458;28;20039;-75
2022/08/04 06:47:36;;;;;;;14.73;4.25;;;;;;;27.90;89.34;101172.38;5095289;28;20020;-75
2022/08/04 06:50:23;;;;;;;8.02;4.38;;;;;;;28.14;88.72;101165.81;5094636;28;20027;-76
2022/08/04 06:53:09;;;;;;;10.23;4.20;;;;;;;28.15;87.33;101167.53;5094052;28;20049;-75
2022/08/04 06:55:57;;;;;;;8.80;4.57;;;;;;;28.10;87.12;101167.06;5093725;28;20040;-76
2022/08/04 06:58:45;;;;;;;6.18;4.00;;;;;;;28.40;85.63;101164.47;5094522;28;20115;-74
2022/08/04 07:01:35;;;;;;;7.07;4.28;;;;;;;28.84;84.76;101176.91;5093593;28;20087;-76
2022/08/04 07:04:21;;;;;;;9.30;4.60;;;;;;;28.80;85.95;101165.53;5095342;28;20034;-76
2022/08/04 07:07:07;;;;;;;7.63;4.38;;;;;;;29.01;82.87;101173.66;5093364;28;20016;-75
2022/08/04 07:09:53;;;;;;;5.60;3.80;;;;;;;29.07;81.54;101176.69;5094126;28;20032;-77
2022/08/04 07:12:40;;;;;;;8.60;4.28;;;;;;;29.08;83.49;101177.50;5094505;28;20453;-75
2022/08/04 07:15:27;;;;;;;8.77;4.60;;;;;;;29.24;81.28;101172.47;5093078;28;20032;-75
2022/08/04 07:18:14;;;;;;;8.57;4.32;;;;;;;28.50;84.84;101170.84;5094111;28;20086;-75
2022/08/04 07:21:00;;;;;;;5.93;3.88;;;;;;;28.54;85.66;101169.59;5094412;28;20024;-75
2022/08/04 07:23:46;;;;;;;5.93;3.88;;;;;;;28.29;86.86;101160.97;5094399;28;20420;-76
2022/08/04 07:26:33;;;;;;;9.70;4.63;;;;;;;28.43;87.12;101163.38;5093288;28;20115;-75
2022/08/04 07:29:18;;;;;;;13.00;4.68;;;;;;;28.69;86.70;101162.06;5094062;28;20028;-76
2022/08/04 07:32:05;;;;;;;7.97;4.50;;;;;;;29.35;82.82;101162.47;5093831;28;20028;-80
2022/08/04 07:34:52;;;;;;;6.13;4.45;;;;;;;29.29;84.05;101157.59;5094434;28;20032;-74
2022/08/04 07:37:38;;;;;;;8.07;4.05;;;;;;;29.72;79.40;101160.06;5093607;28;20024;-76
2022/08/04 07:40:25;;;;;;;5.47;3.70;;;;;;;30.02;76.77;101152.72;5094744;28;20027;-75
2022/08/04 07:43:13;;;;;;;4.88;3.78;;;;;;;29.59;80.26;101156.75;5097228;28;20047;-75
2022/08/04 07:45:59;;;;;;;7.78;3.78;;;;;;;29.96;78.60;101150.59;5097089;28;20028;-76
2022/08/04 07:48:45;;;;;;;7.20;4.00;;;;;;;29.83;77.61;101162.66;5098207;28;20448;-78
2022/08/04 07:51:34;;;;;;;7.90;3.88;;;;;;;30.39;77.17;101152.94;5098079;28;20024;-75
2022/08/04 07:54:21;;;;;;;7.50;4.30;;;;;;;30.62;71.51;101151.66;5097208;28;20056;-75
2022/08/04 07:57:07;;;;;;;7.38;4.00;;;;;;;30.31;73.45;101150.94;5097494;28;20032;-76
2022/08/04 07:59:52;;;;;;;8.73;4.75;;;;;;;30.31;69.80;101158.19;5098276;28;20032;-75
2022/08/04 08:02:39;;;;;;;7.35;4.30;;;;;;;30.53;72.43;101152.47;5098024;28;20074;-75
2022/08/04 08:05:25;;;;;;;11.75;4.20;;;;;;;31.01;71.94;101154.16;5098449;28;20066;-74
2022/08/04 08:08:11;;;;;;;7.10;4.63;;;;;;;31.15;69.42;101156.38;5097112;28;20031;-75
2022/08/04 08:10:57;;;;;;;4.43;3.65;;;;;;;31.54;67.89;101158.97;5097550;28;20028;-75
2022/08/04 08:13:44;;;;;;;9.02;3.58;;;;;;;31.58;65.53;101160.38;5097127;28;20093;-76
2022/08/04 08:16:32;;;;;;;6.03;3.70;;;;;;;31.30;66.48;101151.41;5098125;28;20023;-76
2022/08/04 08:19:19;;;;;;;5.80;3.60;;;;;;;31.52;67.81;101152.84;5097261;28;20509;-76
2022/08/04 08:22:05;;;;;;;4.97;3.70;;;;;;;31.78;65.06;101151.19;5097143;28;20024;-76
2022/08/04 08:24:51;;;;;;;8.05;3.70;;;;;;;32.25;63.73;101153.53;5097897;28;20020;-75
2022/08/04 08:27:37;;;;;;;8.27;4.15;;;;;;;32.37;62.13;101162.31;5097753;28;20380;-75
2022/08/04 08:30:24;;;;;;;6.68;4.28;;;;;;;32.32;59.64;101160.09;5097063;28;20099;-75
2022/08/04 08:33:13;;;;;;;11.77;8.13;;;;;;;32.59;57.12;101156.44;5096851;28;20082;-76
2022/08/04 08:36:10;;;;;;;6.50;4.65;;;;;;;32.80;57.03;101154.22;5096317;28;20039;-76
2022/08/04 08:39:02;;;;;;;10.10;6.63;;;;;;;32.66;58.88;101152.09;5096962;28;20028;-76
2022/08/04 08:42:20;;;;;;;8.73;4.38;;;;;;;32.58;58.50;101146.59;5097334;28;20329;-76
2022/08/04 08:45:21;;;;;;;10.13;3.70;;;;;;;32.58;59.54;101152.03;5096067;28;20081;-76
2022/08/04 08:48:34;;;;;;;5.15;3.80;;;;;;;32.66;59.48;101152.09;5097127;28;20091;-76
2022/08/04 08:51:40;;;;;;;4.25;3.45;;;;;;;32.54;54.16;101156.06;5095603;28;20210;-76
2022/08/04 08:54:50;;;;;;;5.13;3.55;;;;;;;32.43;55.58;101154.44;5096328;28;20541;-77
2022/08/04 08:57:50;;;;;;;5.57;3.88;;;;;;;32.98;54.22;101157.78;5096452;28;20042;-76
2022/08/04 09:00:51;;;;;;;4.65;3.58;;;;;;;32.95;54.46;101160.81;5096659;28;20043;-76
2022/08/04 09:03:54;;;;;;;6.90;3.85;;;;;;;32.92;52.69;101156.56;5096120;28;20020;-76
2022/08/04 09:07:19;;;;;;;7.85;3.80;;;;;;;32.07;51.91;101151.84;5096453;28;20067;-76
2022/08/04 09:10:08;;;;;;;5.57;3.45;;;;;;;32.43;52.02;101143.59;5097059;28;20020;-77
2022/08/04 09:13:16;;;;;;;4.40;3.40;;;;;;;32.17;54.26;101139.91;5096140;28;20035;-77
2022/08/04 09:16:27;;;;;;;4.60;3.65;;;;;;;32.72;51.32;101144.16;5095287;28;20019;-77
2022/08/04 09:19:38;;;;;;;5.50;3.15;;;;;;;32.67;50.39;101138.38;5096685;28;20032;-76
2022/08/04 09:22:42;;;;;;;9.00;3.70;;;;;;;33.01;48.95;101128.44;5095906;28;20097;-77
2022/08/04 09:25:37;;;;;;;5.70;3.17;;;;;;;33.05;49.92;101135.25;5096408;28;20063;-75
2022/08/04 09:28:25;;;;;;;4.82;3.13;;;;;;;32.83;50.31;101132.22;5095717;28;20349;-76
2022/08/04 09:31:27;;;;;;;4.30;3.25;;;;;;;32.15;51.32;101124.81;5095322;28;20418;-77
2022/08/04 09:34:25;;;;;;;4.32;3.00;;;;;;;32.99;50.35;101130.44;5095488;28;20027;-77
2022/08/04 09:37:30;;;;;;;6.00;3.13;;;;;;;32.73;50.44;101139.56;5096211;28;20032;-76
2022/08/04 09:40:42;;;;;;;3.80;3.10;;;;;;;32.59;50.08;101132.00;5095555;28;20031;-76
2022/08/04 09:43:42;;;;;;;3.53;3.22;;;;;;;32.39;49.64;101130.47;5085978;28;20475;-76
2022/08/04 09:46:33;;;;;;;4.65;3.10;;;;;;;32.87;48.85;101128.19;5095502;28;20040;-76
2022/08/04 09:49:26;;;;;;;4.70;3.08;;;;;;;33.10;47.57;101130.19;5096036;28;20107;-75
2022/08/04 09:52:21;;;;;;;4.43;3.38;;;;;;;33.06;47.94;101127.97;5095468;28;20345;-77
2022/08/04 09:55:23;;;;;;;6.35;3.20;;;;;;;32.76;49.41;101131.97;5095407;28;20048;-75
2022/08/04 09:58:37;;;;;;;7.43;3.25;;;;;;;32.71;50.25;101128.84;5097329;27;20448;-77
2022/08/04 10:01:27;;;;;;;4.32;3.00;;;;;;;32.26;51.89;101121.84;5095364;28;20057;-76
2022/08/04 10:04:18;;;;;;;5.13;3.22;;;;;;;32.45;51.19;101121.69;5094951;28;20043;-76
2022/08/04 10:07:03;;;;;;;5.50;3.20;;;;;;;32.56;50.21;101118.75;5094943;28;20115;-76
2022/08/04 10:09:55;;;;;;;8.93;3.47;;;;;;;32.17;50.39;101117.34;5094984;28;20031;-76
2022/08/04 10:13:04;;;;;;;8.32;5.05;;;;;;;32.07;52.41;101112.03;5095795;28;20032;-76
2022/08/04 10:16:08;;;;;;;6.07;3.72;;;;;;;32.54;49.45;101112.63;5096059;28;20031;-74
2022/08/04 10:19:12;;;;;;;3.78;3.38;;;;;;;32.63;48.93;101117.13;5100158;28;20065;-74
2022/08/04 10:22:16;;;;;;;3.88;3.20;;;;;;;32.21;50.75;101108.75;5099854;28;20116;-74
2022/08/04 10:25:16;;;;;;;6.07;3.42;;;;;;;32.43;51.77;101112.88;5099249;28;20173;-74
2022/08/04 10:28:07;;;;;;;6.22;3.72;;;;;;;32.81;50.99;101107.09;5100282;28;20031;-75
2022/08/04 10:30:59;;;;;;;4.13;3.30;;;;;;;32.97;48.74;101108.03;5099956;28;20055;-74
2022/08/04 10:33:53;;;;;;;3.50;3.10;;;;;;;33.06;48.03;101093.50;5101436;28;20020;-74
2022/08/04 10:37:08;;;;;;;9.55;3.63;;;;;;;32.86;48.51;101102.03;5100096;28;20055;-75
2022/08/04 10:43:18;;;;;;;4.28;3.40;;;;;;;32.42;49.72;101095.75;5099865;28;20444;-74
2022/08/04 10:46:20;;;;;;;5.90;3.35;;;;;;;32.73;47.91;101093.41;5095182;28;20024;-75
2022/08/04 10:49:20;;;;;;;7.05;3.90;;;;;;;33.42;47.18;101094.19;5094238;28;20055;-75
2022/08/04 10:52:17;;;;;;;6.72;2.95;;;;;;;32.74;48.27;101103.28;5093703;28;20020;-75
2022/08/04 10:55:12;;;;;;;6.53;3.40;;;;;;;32.88;47.51;101098.16;5094578;28;20055;-75
2022/08/04 10:58:04;;;;;;;4.90;3.20;;;;;;;32.77;47.65;101087.53;5094206;28;20101;-75
2022/08/04 11:00:56;;;;;;;4.05;3.40;;;;;;;33.37;46.71;101082.97;5094296;28;20325;-75
2022/08/04 11:03:55;;;;;;;6.80;3.10;;;;;;;33.68;45.67;101090.41;5094094;28;20028;-75
2022/08/04 11:06:42;;;;;;;6.53;3.08;;;;;;;33.38;45.56;101090.09;5094212;28;20059;-76
2022/08/04 11:09:30;;;;;;;10.90;7.53;;;;;;;33.46;44.69;101091.00;5093857;28;20016;-75
2022/08/04 11:12:21;;;;;;;6.88;3.63;;;;;;;33.47;44.69;101091.84;5094042;28;20024;-75
2022/08/04 11:15:15;;;;;;;6.60;4.32;;;;;;;33.90;44.22;101076.19;5093806;28;20024;-76
2022/08/04 11:18:11;;;;;;;5.13;3.00;;;;;;;34.15;43.16;101068.91;5095338;28;20035;-74
2022/08/04 11:21:32;;;;;;;4.25;3.30;;;;;;;34.36;42.19;101077.44;5095179;28;20082;-75
2022/08/04 11:24:30;;;;;;;7.57;3.03;;;;;;;34.20;42.98;101071.97;5093121;28;20337;-75
2022/08/04 11:27:27;;;;;;;5.70;3.28;;;;;;;34.29;41.36;101074.53;5093252;28;20085;-75
2022/08/04 11:30:14;;;;;;;5.22;3.00;;;;;;;33.34;42.39;101064.28;5094530;28;20024;-75
2022/08/04 11:33:08;;;;;;;4.95;3.13;;;;;;;33.61;42.56;101056.72;5094459;28;20031;-76
2022/08/04 11:36:02;;;;;;;7.53;3.10;;;;;;;33.52;42.66;101055.03;5094780;28;20356;-76
2022/08/04 11:38:58;;;;;;;3.92;3.28;;;;;;;34.51;41.24;101048.53;5093922;28;20036;-76
2022/08/04 11:41:59;;;;;;;4.43;3.30;;;;;;;34.12;40.77;101058.38;5094282;28;20039;-74
2022/08/04 11:45:09;;;;;;;5.40;3.10;;;;;;;33.70;41.30;101052.16;5093820;28;20120;-75
2022/08/04 11:48:03;;;;;;;4.57;2.97;;;;;;;33.42;41.17;101054.28;5094705;28;20031;-76
2022/08/04 11:50:52;;;;;;;5.25;3.08;;;;;;;33.61;41.00;101039.56;5094088;28;20031;-75
2022/08/04 11:53:39;;;;;;;7.13;3.85;;;;;;;34.12;40.91;101047.47;5093119;28;20066;-75
2022/08/04 11:56:26;;;;;;;6.10;3.17;;;;;;;33.74;40.25;101038.06;5093048;28;20032;-76
2022/08/04 11:59:11;;;;;;;7.90;3.80;;;;;;;33.93;40.36;101039.66;5093672;28;20058;-75
2022/08/04 12:02:19;;;;;;;5.22;3.40;;;;;;;34.48;40.02;101036.06;5093230;28;20441;-75
2022/08/04 12:05:07;;;;;;;7.65;3.70;;;;;;;34.35;39.17;101037.66;5093445;28;20436;-76
2022/08/04 12:08:25;;;;;;;5.13;3.03;;;;;;;33.19;40.79;101031.41;5094091;28;20012;-76
2022/08/04 12:11:20;;;;;;;4.50;3.25;;;;;;;32.47;42.40;101030.16;5093774;28;20502;-76
2022/08/04 12:14:25;;;;;;;4.88;3.90;;;;;;;33.26;40.61;101032.47;5093495;28;20032;-76
2022/08/04 12:17:20;;;;;;;3.22;2.88;;;;;;;33.60;40.23;101021.56;5096483;28;20493;-75
2022/08/04 12:20:09;;;;;;;4.00;2.95;;;;;;;33.96;40.44;101026.56;5094987;28;20047;-75
2022/08/04 12:22:57;;;;;;;6.35;3.40;;;;;;;34.13;39.45;101021.97;5095320;28;20047;-74
2022/08/04 12:25:47;;;;;;;4.18;3.05;;;;;;;34.34;39.37;101008.72;5093083;28;20352;-76
2022/08/04 12:28:39;;;;;;;5.68;3.17;;;;;;;35.06;38.85;101008.53;5096424;28;20027;-75
2022/08/04 12:31:30;;;;;;;7.40;3.33;;;;;;;35.80;36.82;101017.06;5097059;28;20036;-76
2022/08/04 12:34:29;;;;;;;4.70;2.97;;;;;;;34.70;38.08;101012.72;5096748;28;20024;-76
2022/08/04 12:37:33;;;;;;;4.47;3.55;;;;;;;34.32;38.72;101016.22;5097596;28;20444;-76
2022/08/04 12:40:24;;;;;;;5.20;2.90;;;;;;;34.07;38.98;101001.75;5096905;28;20456;-76
2022/08/04 12:43:17;;;;;;;6.53;2.90;;;;;;;34.24;38.67;101002.59;5096702;28;20036;-76
2022/08/04 12:46:06;;;;;;;5.72;2.85;;;;;;;33.80;39.39;100987.59;5095789;28;20098;-76
2022/08/04 12:49:00;;;;;;;4.82;3.60;;;;;;;35.00;39.37;101001.09;5096546;28;20126;-76
2022/08/04 12:51:46;;;;;;;5.43;3.45;;;;;;;34.71;37.99;100996.22;5096588;28;20029;-76
2022/08/04 12:54:35;;;;;;;5.45;4.20;;;;;;;35.45;37.52;100987.59;5097687;28;20506;-76
2022/08/04 12:57:30;;;;;;;5.40;3.15;;;;;;;34.81;37.13;100994.19;5098520;28;20032;-75
2022/08/04 13:00:34;;;;;;;4.68;3.10;;;;;;;33.76;38.67;100991.69;5096392;28;20036;-77
2022/08/04 13:03:23;;;;;;;5.55;3.28;;;;;;;33.53;39.12;100991.47;5095622;28;20107;-76
2022/08/04 13:06:12;;;;;;;3.85;3.20;;;;;;;33.74;39.44;100993.69;5096880;28;20066;-76
2022/08/04 13:09:08;;;;;;;7.80;3.30;;;;;;;33.88;39.11;100990.38;5095693;28;20089;-76
2022/08/04 13:12:01;;;;;;;4.60;3.40;;;;;;;33.83;39.38;100993.56;5096774;28;20081;-76
2022/08/04 13:14:50;;;;;;;6.78;3.22;;;;;;;34.11;38.63;100991.38;5097477;28;20020;-76
2022/08/04 13:17:51;;;;;;;8.52;3.50;;;;;;;33.70;38.99;100990.47;5100463;28;20028;-74
2022/08/04 13:20:38;;;;;;;7.50;4.28;;;;;;;33.86;39.53;100995.97;5100103;28;20485;-75
2022/08/04 13:23:26;;;;;;;5.32;3.35;;;;;;;33.97;38.94;100986.63;5097705;28;20028;-75
2022/08/04 13:26:16;;;;;;;6.13;3.47;;;;;;;33.72;39.23;100982.16;5095590;28;20047;-76
2022/08/04 13:29:06;;;;;;;7.25;3.25;;;;;;;33.72;39.57;100980.31;5095926;28;20457;-76
2022/08/04 13:31:53;;;;;;;5.88;3.33;;;;;;;34.15;38.98;100973.69;5095816;28;20116;-75
2022/08/04 13:34:42;;;;;;;4.60;3.15;;;;;;;34.12;37.82;100971.31;5096241;28;20020;-76
2022/08/04 13:37:34;;;;;;;6.57;3.50;;;;;;;34.07;39.03;100973.72;5095052;28;20035;-75
2022/08/04 13:40:23;;;;;;;4.50;3.22;;;;;;;34.25;38.53;100971.63;5095430;28;20094;-75